createdAt,value
2023-03-01T00:01:12.394Z,2.20
2023-03-01T00:03:39.849Z,2.30
2023-03-01T00:06:06.981Z,2.30
2023-03-01T00:08:34.372Z,2.30
2023-03-01T00:11:05.768Z,2.30
2023-03-01T00:13:33.153Z,2.30
2023-03-01T00:16:00.070Z,2.30
2023-03-01T00:18:27.984Z,2.30
2023-03-01T00:20:55.397Z,2.30
2023-03-01T00:23:23.133Z,2.30
2023-03-01T00:25:50.655Z,2.30
2023-03-01T00:28:17.940Z,2.30
2023-03-01T00:30:45.187Z,2.30
2023-03-01T00:33:25.256Z,2.30
2023-03-01T00:36:05.905Z,2.30
2023-03-01T00:38:37.923Z,2.30
2023-03-01T00:41:06.381Z,2.20
2023-03-01T00:43:37.740Z,2.20
2023-03-01T00:46:06.196Z,2.20
2023-03-01T00:48:33.470Z,2.20
2023-03-01T00:51:10.931Z,2.20
2023-03-01T00:53:38.719Z,2.20
2023-03-01T00:56:13.389Z,2.20
2023-03-01T00:58:47.085Z,2.20
2023-03-01T01:01:20.244Z,2.20
2023-03-01T01:03:56.837Z,2.20
2023-03-01T01:06:25.646Z,2.20
2023-03-01T01:08:53.227Z,2.20
2023-03-01T01:11:21.038Z,2.20
2023-03-01T01:13:48.556Z,2.20
2023-03-01T01:16:16.841Z,2.20
2023-03-01T01:18:44.210Z,2.20
2023-03-01T01:21:12.829Z,2.20
2023-03-01T01:23:40.192Z,2.20
2023-03-01T01:26:08.863Z,2.20
2023-03-01T01:28:36.396Z,2.20
2023-03-01T01:31:03.692Z,2.20
2023-03-01T01:33:30.825Z,2.20
2023-03-01T01:35:57.805Z,2.10
2023-03-01T01:38:25.384Z,2.20
2023-03-01T01:40:52.536Z,2.20
2023-03-01T01:43:30.202Z,2.20
2023-03-01T01:46:02.308Z,2.20
2023-03-01T01:48:43.730Z,2.20
2023-03-01T01:51:12.765Z,2.20
2023-03-01T01:53:41.053Z,2.20
2023-03-01T01:56:09.833Z,2.20
2023-03-01T01:58:43.482Z,2.20
2023-03-01T02:01:30.351Z,2.20
2023-03-01T02:04:04.523Z,2.20
2023-03-01T02:06:31.847Z,2.10
2023-03-01T02:09:01.354Z,2.20
2023-03-01T02:11:30.512Z,2.10
2023-03-01T02:13:57.521Z,2.10
2023-03-01T02:16:24.725Z,2.10
2023-03-01T02:18:51.749Z,2.10
2023-03-01T02:21:42.078Z,2.00
2023-03-01T02:24:29.289Z,2.10
2023-03-01T02:26:57.076Z,2.00
2023-03-01T02:29:24.815Z,2.00
2023-03-01T02:31:53.811Z,2.00
2023-03-01T02:34:22.413Z,2.00
2023-03-01T02:36:54.954Z,2.00
2023-03-01T02:39:24.809Z,2.00
2023-03-01T02:41:53.069Z,2.00
2023-03-01T02:44:20.722Z,2.00
2023-03-01T02:46:52.180Z,1.90
2023-03-01T02:49:30.009Z,2.00
2023-03-01T02:51:57.161Z,2.00
2023-03-01T02:54:30.930Z,2.00
2023-03-01T02:56:58.589Z,2.00
2023-03-01T02:59:28.360Z,2.00
2023-03-01T03:01:55.607Z,2.00
2023-03-01T03:04:22.560Z,2.10
2023-03-01T03:06:51.434Z,2.10
2023-03-01T03:09:25.583Z,2.10
2023-03-01T03:12:14.397Z,2.20
2023-03-01T03:14:54.553Z,2.20
2023-03-01T03:17:28.117Z,2.20
2023-03-01T03:19:55.160Z,2.20
2023-03-01T03:22:22.218Z,2.20
2023-03-01T03:24:49.133Z,2.20
2023-03-01T03:27:16.074Z,2.20
2023-03-01T03:29:43.221Z,2.30
2023-03-01T03:32:12.531Z,2.20
2023-03-01T03:34:39.520Z,2.30
2023-03-01T03:37:26.401Z,2.30
2023-03-01T03:39:59.544Z,2.30
2023-03-01T03:42:33.128Z,2.30
2023-03-01T03:45:00.128Z,2.40
2023-03-01T03:47:27.907Z,2.40
2023-03-01T03:49:54.926Z,2.40
2023-03-01T03:52:24.159Z,2.40
2023-03-01T03:54:51.115Z,2.50
2023-03-01T03:57:18.260Z,2.50
2023-03-01T03:59:45.166Z,2.50
2023-03-01T04:02:12.183Z,2.50
2023-03-01T04:04:39.130Z,2.50
2023-03-01T04:07:06.156Z,2.50
2023-03-01T04:09:33.063Z,2.50
2023-03-01T04:12:06.571Z,2.50
2023-03-01T04:14:52.583Z,2.50
2023-03-01T04:17:20.302Z,2.50
2023-03-01T04:19:49.826Z,2.50
2023-03-01T04:22:18.481Z,2.60
2023-03-01T04:24:45.723Z,2.60
2023-03-01T04:27:12.891Z,2.60
2023-03-01T04:29:53.487Z,2.60
2023-03-01T04:32:40.645Z,2.60
2023-03-01T04:35:20.595Z,2.60
2023-03-01T04:37:54.242Z,2.70
2023-03-01T04:40:22.373Z,2.70
2023-03-01T04:42:49.386Z,2.70
2023-03-01T04:45:16.759Z,2.70
2023-03-01T04:47:45.352Z,2.70
2023-03-01T04:50:13.488Z,2.70
2023-03-01T04:52:40.421Z,2.70
2023-03-01T04:55:07.634Z,2.70
2023-03-01T04:57:35.146Z,2.80
2023-03-01T05:00:02.391Z,2.70
2023-03-01T05:02:30.644Z,2.70
2023-03-01T05:04:58.658Z,2.70
2023-03-01T05:07:27.339Z,2.70
2023-03-01T05:09:55.481Z,2.70
2023-03-01T05:12:22.460Z,2.70
2023-03-01T05:14:49.480Z,2.80
2023-03-01T05:17:16.384Z,2.80
2023-03-01T05:19:49.659Z,2.80
2023-03-01T05:22:24.115Z,2.80
2023-03-01T05:24:51.041Z,2.80
2023-03-01T05:27:17.980Z,2.80
2023-03-01T05:29:44.907Z,2.90
2023-03-01T05:32:16.648Z,2.90
2023-03-01T05:34:44.129Z,2.90
2023-03-01T05:37:11.060Z,2.90
2023-03-01T05:39:38.105Z,2.90
2023-03-01T05:42:05.002Z,2.90
2023-03-01T05:44:32.059Z,2.90
2023-03-01T05:47:02.379Z,2.90
2023-03-01T05:49:29.442Z,2.90
2023-03-01T05:51:56.344Z,2.90
2023-03-01T05:54:23.613Z,2.80
2023-03-01T05:56:50.792Z,2.80
2023-03-01T05:59:17.878Z,2.90
2023-03-01T06:01:44.858Z,2.90
2023-03-01T06:04:11.901Z,2.90
2023-03-01T06:06:39.187Z,2.90
2023-03-01T06:09:08.429Z,2.90
2023-03-01T06:11:36.168Z,2.90
2023-03-01T06:14:03.852Z,2.90
2023-03-01T06:16:32.270Z,3.00
2023-03-01T06:19:05.712Z,3.00
2023-03-01T06:21:52.637Z,3.00
2023-03-01T06:24:26.261Z,3.10
2023-03-01T06:26:53.993Z,3.20
2023-03-01T06:29:23.735Z,3.20
2023-03-01T06:31:50.672Z,3.20
2023-03-01T06:34:17.876Z,3.10
2023-03-01T06:36:44.791Z,3.00
2023-03-01T06:39:11.732Z,3.00
2023-03-01T06:41:38.808Z,3.00
2023-03-01T06:44:05.766Z,3.00
2023-03-01T06:46:33.022Z,3.10
2023-03-01T06:49:00.266Z,3.10
2023-03-01T06:51:28.095Z,3.20
2023-03-01T06:53:55.034Z,3.30
2023-03-01T06:56:21.960Z,3.40
2023-03-01T06:58:49.125Z,3.50
2023-03-01T07:01:16.129Z,3.50
2023-03-01T07:03:45.422Z,3.60
2023-03-01T07:06:12.609Z,3.70
2023-03-01T07:08:39.534Z,3.70
2023-03-01T07:11:06.839Z,3.70
2023-03-01T07:13:33.805Z,3.80
2023-03-01T07:16:01.213Z,4.00
2023-03-01T07:18:41.647Z,4.00
2023-03-01T07:21:15.710Z,4.10
2023-03-01T07:23:45.052Z,4.10
2023-03-01T07:26:15.684Z,4.20
2023-03-01T07:28:43.038Z,4.30
2023-03-01T07:31:10.019Z,4.40
2023-03-01T07:33:37.035Z,4.50
2023-03-01T07:36:05.246Z,4.60
2023-03-01T07:38:32.414Z,4.60
2023-03-01T07:41:00.390Z,4.80
2023-03-01T07:43:28.740Z,4.80
2023-03-01T07:45:55.792Z,5.00
2023-03-01T07:48:22.908Z,5.10
2023-03-01T07:50:52.226Z,5.30
2023-03-01T07:53:19.218Z,5.30
2023-03-01T07:55:46.148Z,5.40
2023-03-01T07:58:13.027Z,5.40
2023-03-01T08:00:39.940Z,5.60
2023-03-01T08:03:06.976Z,5.60
2023-03-01T08:05:33.939Z,5.70
2023-03-01T08:08:01.224Z,5.80
2023-03-01T08:10:41.709Z,6.10
2023-03-01T08:13:23.553Z,6.50
2023-03-01T08:16:12.432Z,6.60
2023-03-01T08:18:39.703Z,6.90
2023-03-01T08:21:11.229Z,7.40
2023-03-01T08:23:44.848Z,7.70
2023-03-01T08:26:31.976Z,8.00
2023-03-01T08:29:11.895Z,8.00
2023-03-01T08:32:05.817Z,7.90
2023-03-01T08:34:53.843Z,8.00
2023-03-01T08:37:33.730Z,8.20
2023-03-01T08:40:20.859Z,8.70
2023-03-01T08:43:00.734Z,9.10
2023-03-01T08:45:47.878Z,9.60
2023-03-01T08:48:27.745Z,10.10
2023-03-01T08:51:16.384Z,10.40
2023-03-01T08:53:55.772Z,10.50
2023-03-01T08:56:42.828Z,10.70
2023-03-01T08:59:23.762Z,11.00
2023-03-01T09:02:11.875Z,11.50
2023-03-01T09:04:51.743Z,12.00
2023-03-01T09:07:38.854Z,12.30
2023-03-01T09:10:18.751Z,12.40
2023-03-01T09:13:05.868Z,12.60
2023-03-01T09:15:45.772Z,12.80
2023-03-01T09:18:39.831Z,12.80
2023-03-01T09:21:14.585Z,12.70
2023-03-01T09:23:46.066Z,13.00
2023-03-01T09:26:14.387Z,13.40
2023-03-01T09:28:45.416Z,13.60
2023-03-01T09:31:15.418Z,13.80
2023-03-01T09:33:43.138Z,14.00
2023-03-01T09:36:13.942Z,14.20
2023-03-01T09:38:40.934Z,14.60
2023-03-01T09:41:11.947Z,14.80
2023-03-01T09:46:11.575Z,15.50
2023-03-01T09:48:44.368Z,15.30
2023-03-01T09:51:15.738Z,15.50
2023-03-01T09:53:42.648Z,16.00
2023-03-01T09:56:12.555Z,16.40
2023-03-01T09:58:53.744Z,16.60
2023-03-01T10:01:45.870Z,16.90
2023-03-01T10:04:26.336Z,17.20
2023-03-01T10:07:06.465Z,17.20
2023-03-01T10:09:35.191Z,17.00
2023-03-01T10:12:03.852Z,17.10
2023-03-01T10:14:36.506Z,17.10
2023-03-01T10:17:25.304Z,17.40
2023-03-01T10:19:52.258Z,17.50
2023-03-01T10:22:22.452Z,17.60
2023-03-01T10:24:50.057Z,18.10
2023-03-01T10:27:30.947Z,18.50
2023-03-01T10:30:04.549Z,18.60
2023-03-01T10:32:32.179Z,18.60
2023-03-01T10:34:59.656Z,18.80
2023-03-01T10:37:28.461Z,18.90
2023-03-01T10:39:56.715Z,18.60
2023-03-01T10:42:29.282Z,18.40
2023-03-01T10:44:56.368Z,18.30
2023-03-01T10:47:27.477Z,18.40
2023-03-01T10:50:00.384Z,18.50
2023-03-01T10:52:30.135Z,18.70
2023-03-01T10:54:59.266Z,19.10
2023-03-01T10:57:29.847Z,19.20
2023-03-01T11:00:16.925Z,19.30
2023-03-01T11:02:43.962Z,19.50
2023-03-01T11:05:13.895Z,19.80
2023-03-01T11:07:50.927Z,19.90
2023-03-01T11:10:18.757Z,19.70
2023-03-01T11:12:45.651Z,19.60
2023-03-01T11:15:27.118Z,19.40
2023-03-01T11:18:02.871Z,19.10
2023-03-01T11:20:37.593Z,19.00
2023-03-01T11:23:08.105Z,19.30
2023-03-01T11:25:37.831Z,19.40
2023-03-01T11:28:12.020Z,19.40
2023-03-01T11:31:09.406Z,18.90
2023-03-01T11:33:49.485Z,18.40
2023-03-01T11:36:40.908Z,18.10
2023-03-01T11:39:21.082Z,17.90
2023-03-01T11:42:23.020Z,18.20
2023-03-01T11:44:59.362Z,18.50
2023-03-01T11:47:26.422Z,18.50
2023-03-01T11:50:02.783Z,18.50
2023-03-01T11:52:41.805Z,18.50
2023-03-01T11:55:08.698Z,18.50
2023-03-01T11:57:50.970Z,18.60
2023-03-01T12:00:57.066Z,18.40
2023-03-01T12:03:49.518Z,17.30
2023-03-01T12:06:26.153Z,15.40
2023-03-01T12:09:05.402Z,13.80
2023-03-01T12:11:38.288Z,13.20
2023-03-01T12:14:13.407Z,12.70
2023-03-01T12:16:43.383Z,11.80
2023-03-01T12:19:28.795Z,10.90
2023-03-01T12:21:58.914Z,10.20
2023-03-01T12:24:44.756Z,9.60
2023-03-01T12:27:19.957Z,9.20
2023-03-01T12:29:52.886Z,8.90
2023-03-01T12:32:25.832Z,8.60
2023-03-01T12:35:00.993Z,8.40
2023-03-01T12:37:37.166Z,8.20
2023-03-01T12:40:04.737Z,7.90
2023-03-01T12:42:53.085Z,7.70
2023-03-01T12:45:29.353Z,7.50
2023-03-01T12:47:56.463Z,7.40
2023-03-01T12:50:29.458Z,7.30
2023-03-01T12:52:57.328Z,7.20
2023-03-01T12:55:40.808Z,7.20
2023-03-01T12:58:13.890Z,7.10
2023-03-01T13:00:46.059Z,7.10
2023-03-01T13:03:25.180Z,7.10
2023-03-01T13:05:58.413Z,7.10
2023-03-01T13:08:43.861Z,7.10
2023-03-01T13:11:18.740Z,7.00
2023-03-01T13:13:47.721Z,7.00
2023-03-01T13:16:36.142Z,7.00
2023-03-01T13:19:24.197Z,6.90
2023-03-01T13:22:31.068Z,6.80
2023-03-01T13:25:32.037Z,6.80
2023-03-01T13:28:39.157Z,6.70
2023-03-01T13:31:33.148Z,6.60
2023-03-01T13:34:33.605Z,6.60
2023-03-01T13:37:10.977Z,6.60
2023-03-01T13:39:41.577Z,6.60
2023-03-01T13:42:27.143Z,6.50
2023-03-01T13:45:08.353Z,6.40
2023-03-01T13:47:42.842Z,6.40
2023-03-01T13:50:17.381Z,6.40
2023-03-01T13:52:45.549Z,6.40
2023-03-01T13:55:15.556Z,6.40
2023-03-01T13:57:43.532Z,6.40
2023-03-01T14:00:25.892Z,6.30
2023-03-01T14:03:06.384Z,6.30
2023-03-01T14:05:34.329Z,6.20
2023-03-01T14:08:01.290Z,6.10
2023-03-01T14:10:32.950Z,6.10
2023-03-01T14:13:15.842Z,6.10
2023-03-01T14:15:46.217Z,6.00
2023-03-01T14:18:22.531Z,6.00
2023-03-01T14:20:53.775Z,6.00
2023-03-01T14:23:22.561Z,5.90
2023-03-01T14:25:52.925Z,5.90
2023-03-01T14:28:31.295Z,5.90
2023-03-01T14:31:47.027Z,5.90
2023-03-01T14:34:26.113Z,5.90
2023-03-01T14:36:53.116Z,5.80
2023-03-01T14:39:22.249Z,5.80
2023-03-01T14:41:49.521Z,5.80
2023-03-01T14:44:19.670Z,5.80
2023-03-01T14:46:47.093Z,5.80
2023-03-01T14:49:16.575Z,5.70
2023-03-01T14:51:47.649Z,5.70
2023-03-01T14:54:34.962Z,5.60
2023-03-01T14:57:09.230Z,5.60
2023-03-01T14:59:58.183Z,5.60
2023-03-01T15:02:40.629Z,5.60
2023-03-01T15:05:32.261Z,5.50
2023-03-01T15:08:13.359Z,5.50
2023-03-01T15:11:00.599Z,5.40
2023-03-01T15:13:31.027Z,5.40
2023-03-01T15:16:04.236Z,5.40
2023-03-01T15:18:31.473Z,5.40
2023-03-01T15:21:07.027Z,5.40
2023-03-01T15:23:35.015Z,5.30
2023-03-01T15:26:02.559Z,5.30
2023-03-01T15:28:31.454Z,5.30
2023-03-01T15:31:03.661Z,5.20
2023-03-01T15:33:35.477Z,5.20
2023-03-01T15:36:03.996Z,5.30
2023-03-01T15:38:35.654Z,5.30
2023-03-01T15:41:26.612Z,5.40
2023-03-01T15:43:56.913Z,5.40
2023-03-01T15:46:37.004Z,5.40
2023-03-01T15:49:22.289Z,5.50
2023-03-01T15:51:52.898Z,5.50
2023-03-01T15:54:21.352Z,5.50
2023-03-01T15:56:48.346Z,5.50
2023-03-01T15:59:15.811Z,5.60
2023-03-01T16:01:43.411Z,5.60
2023-03-01T16:04:21.384Z,5.60
2023-03-01T16:06:55.096Z,5.60
2023-03-01T16:09:23.666Z,5.60
2023-03-01T16:11:51.259Z,5.60
2023-03-01T16:14:18.231Z,5.50
2023-03-01T16:16:45.633Z,5.50
2023-03-01T16:19:13.066Z,5.40
2023-03-01T16:21:40.549Z,5.40
2023-03-01T16:24:07.729Z,5.30
2023-03-01T16:26:34.785Z,5.20
2023-03-01T16:29:02.426Z,5.10
2023-03-01T16:31:30.342Z,5.10
2023-03-01T16:34:11.256Z,5.00
2023-03-01T16:36:44.892Z,5.00
2023-03-01T16:39:11.796Z,4.90
2023-03-01T16:41:38.820Z,4.80
2023-03-01T16:44:05.823Z,4.80
2023-03-01T16:46:32.765Z,4.70
2023-03-01T16:48:59.784Z,4.70
2023-03-01T16:51:26.722Z,4.70
2023-03-01T16:53:54.091Z,4.70
2023-03-01T16:56:21.118Z,4.60
2023-03-01T16:58:48.095Z,4.60
2023-03-01T17:01:19.012Z,4.60
2023-03-01T17:03:47.330Z,4.60
2023-03-01T17:06:15.613Z,4.50
2023-03-01T17:08:42.738Z,4.50
2023-03-01T17:11:14.396Z,4.50
2023-03-01T17:13:42.073Z,4.40
2023-03-01T17:16:11.079Z,4.40
2023-03-01T17:21:06.716Z,4.20
2023-03-01T17:23:34.019Z,4.20
2023-03-01T17:26:00.936Z,4.20
2023-03-01T17:28:29.390Z,4.20
2023-03-01T17:30:56.356Z,4.20
2023-03-01T17:33:31.198Z,4.20
2023-03-01T17:36:05.336Z,4.20
2023-03-01T17:38:32.302Z,4.20
2023-03-01T17:41:00.579Z,4.10
2023-03-01T17:43:30.581Z,4.10
2023-03-01T17:45:58.008Z,4.10
2023-03-01T17:48:25.939Z,4.10
2023-03-01T17:50:52.960Z,4.10
2023-03-01T17:53:22.851Z,4.10
2023-03-01T17:55:59.424Z,4.10
2023-03-01T17:58:26.453Z,4.10
2023-03-01T18:00:57.832Z,4.10
2023-03-01T18:03:45.772Z,4.10
2023-03-01T18:06:28.471Z,4.00
2023-03-01T18:09:15.346Z,4.00
2023-03-01T18:11:49.023Z,3.90
2023-03-01T18:14:16.040Z,3.90
2023-03-01T18:16:43.021Z,3.90
2023-03-01T18:19:11.338Z,3.90
2023-03-01T18:21:38.426Z,3.90
2023-03-01T18:24:05.574Z,3.80
2023-03-01T18:26:33.051Z,3.80
2023-03-01T18:29:01.377Z,3.80
2023-03-01T18:31:32.684Z,3.80
2023-03-01T18:34:01.130Z,3.70
2023-03-01T18:36:29.635Z,3.70
2023-03-01T18:38:57.064Z,3.70
2023-03-01T18:41:24.820Z,3.60
2023-03-01T18:43:52.053Z,3.60
2023-03-01T18:46:20.402Z,3.60
2023-03-01T18:48:47.763Z,3.50
2023-03-01T18:51:23.222Z,3.50
2023-03-01T18:53:50.251Z,3.50
2023-03-01T18:56:17.209Z,3.50
2023-03-01T18:58:44.548Z,3.40
2023-03-01T19:01:15.708Z,3.40
2023-03-01T19:03:48.982Z,3.40
2023-03-01T19:06:16.395Z,3.30
2023-03-01T19:08:44.532Z,3.30
2023-03-01T19:11:12.909Z,3.30
2023-03-01T19:13:40.268Z,3.30
2023-03-01T19:16:11.468Z,3.30
2023-03-01T19:18:41.214Z,3.30
2023-03-01T19:21:09.460Z,3.30
2023-03-01T19:23:36.837Z,3.30
2023-03-01T19:26:13.957Z,3.30
2023-03-01T19:28:41.153Z,3.20
2023-03-01T19:31:09.888Z,3.30
2023-03-01T19:33:37.038Z,3.30
2023-03-01T19:36:04.431Z,3.30
2023-03-01T19:38:31.550Z,3.20
2023-03-01T19:40:58.531Z,3.20
2023-03-01T19:43:25.591Z,3.20
2023-03-01T19:45:53.299Z,3.20
2023-03-01T19:48:20.370Z,3.20
2023-03-01T19:50:47.410Z,3.10
2023-03-01T19:53:15.017Z,3.10
2023-03-01T19:55:42.508Z,3.10
2023-03-01T19:58:10.635Z,3.10
2023-03-01T20:00:58.597Z,3.10
2023-03-01T20:03:45.420Z,3.10
2023-03-01T20:06:26.608Z,3.10
2023-03-01T20:09:21.449Z,3.10
2023-03-01T20:11:56.157Z,3.10
2023-03-01T20:14:24.177Z,3.10
2023-03-01T20:16:51.626Z,3.00
2023-03-01T20:19:18.755Z,3.00
2023-03-01T20:21:45.709Z,3.00
2023-03-01T20:24:13.752Z,3.00
2023-03-01T20:26:41.167Z,3.00
2023-03-01T20:29:14.714Z,3.00
2023-03-01T20:31:48.309Z,3.00
2023-03-01T20:34:15.296Z,3.00
2023-03-01T20:36:44.267Z,2.90
2023-03-01T20:39:11.922Z,3.00
2023-03-01T20:41:39.241Z,3.00
2023-03-01T20:44:06.811Z,2.90
2023-03-01T20:46:34.876Z,2.90
2023-03-01T20:49:03.049Z,2.90
2023-03-01T20:51:30.250Z,2.90
2023-03-01T20:53:57.449Z,3.00
2023-03-01T20:56:24.834Z,3.00
2023-03-01T20:59:09.379Z,3.00
2023-03-01T21:01:37.952Z,3.00
2023-03-01T21:04:10.996Z,3.00
2023-03-01T21:06:39.110Z,3.10
2023-03-01T21:09:06.150Z,3.10
2023-03-01T21:11:33.211Z,3.10
2023-03-01T21:14:00.385Z,3.20
2023-03-01T21:16:41.698Z,3.20
2023-03-01T21:19:23.145Z,3.20
2023-03-01T21:22:17.572Z,3.30
2023-03-01T21:25:04.740Z,3.30
2023-03-01T21:27:52.544Z,3.40
2023-03-01T21:30:33.657Z,3.50
2023-03-01T21:33:01.014Z,3.50
2023-03-01T21:35:27.950Z,3.50
2023-03-01T21:37:54.985Z,3.50
2023-03-01T21:40:21.898Z,3.50
2023-03-01T21:42:49.763Z,3.50
2023-03-01T21:45:16.764Z,3.50
2023-03-01T21:47:43.770Z,3.50
2023-03-01T21:50:11.544Z,3.50
2023-03-01T21:52:38.556Z,3.50
2023-03-01T21:55:05.709Z,3.40
2023-03-01T21:57:32.771Z,3.40
2023-03-01T21:59:59.725Z,3.40
2023-03-01T22:02:26.649Z,3.30
2023-03-01T22:04:57.608Z,3.30
2023-03-01T22:07:24.615Z,3.30
2023-03-01T22:09:51.540Z,3.20
2023-03-01T22:12:18.451Z,3.20
2023-03-01T22:14:58.594Z,3.20
2023-03-01T22:17:38.734Z,3.20
2023-03-01T22:20:12.532Z,3.30
2023-03-01T22:22:39.443Z,3.30
2023-03-01T22:25:06.672Z,3.30
2023-03-01T22:27:33.649Z,3.30
2023-03-01T22:30:00.616Z,3.40
2023-03-01T22:32:27.594Z,3.40
2023-03-01T22:34:54.657Z,3.40
2023-03-01T22:37:21.644Z,3.40
2023-03-01T22:39:48.539Z,3.40
2023-03-01T22:42:15.751Z,3.50
2023-03-01T22:44:42.722Z,3.50
2023-03-01T22:47:09.677Z,3.50
2023-03-01T22:49:36.936Z,3.50
2023-03-01T22:52:03.914Z,3.50
2023-03-01T22:54:30.966Z,3.50
2023-03-01T22:56:57.940Z,3.50
2023-03-01T22:59:25.001Z,3.50
2023-03-01T23:01:52.799Z,3.50
2023-03-01T23:04:20.887Z,3.50
2023-03-01T23:06:50.784Z,3.60
2023-03-01T23:09:18.903Z,3.60
2023-03-01T23:11:45.925Z,3.60
2023-03-01T23:14:13.327Z,3.70
2023-03-01T23:16:40.382Z,3.70
2023-03-01T23:19:07.367Z,3.70
2023-03-01T23:21:34.465Z,3.80
2023-03-01T23:24:02.317Z,3.80
2023-03-01T23:26:30.492Z,3.90
2023-03-01T23:28:57.708Z,3.90
2023-03-01T23:31:30.199Z,3.90
2023-03-01T23:33:57.429Z,4.00
2023-03-01T23:36:34.691Z,4.00
2023-03-01T23:39:04.826Z,4.00
2023-03-01T23:41:32.712Z,4.00
2023-03-01T23:44:12.663Z,4.10
2023-03-01T23:46:53.831Z,4.10
2023-03-01T23:49:25.035Z,4.10
2023-03-01T23:51:52.326Z,4.10
2023-03-01T23:54:20.354Z,4.10
2023-03-01T23:56:47.282Z,4.20
2023-03-01T23:59:14.505Z,4.20
